Holt, Missouri
Current Conditions -  °F | °C
As of 5:55 AM on Friday 31 Oct 2014 (Local Time) from KGPH Reporting Station
Overcast Overcast  
Wind Chill:   Ceiling: 2800
Heat Index:   Visibility: 10mi
Dew Point: -1°   Wind: 16mph
Humidity: 65%   Direction: 340°NNW
Pressure: 30.36"   Gusts: 28mph
Location:  39.45°N, 94.34°W
Report Text: KGPH 311055Z AUTO 34014G24KT 10SM OVC028 05/M01 A3036 RMK AO2
Loading
Personal Weather Stations






























Interactive Weather Map
Tropical Storm Tracking
New forecast layout! Learn more

10-Day Weather Forecast

Advertisements
Track Severe Weather on mobile